createdAt,value
2023-06-29T00:00:12.683Z,62.70
2023-06-29T00:02:44.424Z,61.37
2023-06-29T00:05:14.308Z,59.07
2023-06-29T00:07:44.400Z,59.93
2023-06-29T00:10:14.557Z,64.17
2023-06-29T00:12:44.374Z,78.93
2023-06-29T00:15:14.224Z,64.97
2023-06-29T00:17:48.340Z,62.07
2023-06-29T00:20:18.908Z,58.23
2023-06-29T00:22:49.834Z,63.43
2023-06-29T00:25:19.759Z,61.67
2023-06-29T00:27:49.526Z,68.23
2023-06-29T00:30:19.736Z,57.37
2023-06-29T00:32:50.907Z,58.50
2023-06-29T00:35:20.757Z,53.57
2023-06-29T00:37:50.643Z,61.30
2023-06-29T00:40:20.492Z,55.37
2023-06-29T00:42:50.392Z,56.93
2023-06-29T00:45:23.035Z,56.67
2023-06-29T00:47:54.695Z,59.30
2023-06-29T00:50:25.677Z,53.00
2023-06-29T00:52:56.115Z,57.80
2023-06-29T00:55:26.105Z,64.00
2023-06-29T00:57:56.125Z,63.50
2023-06-29T01:00:26.163Z,56.97
2023-06-29T01:02:57.396Z,61.10
2023-06-29T01:05:34.272Z,60.97
2023-06-29T01:08:10.656Z,57.17
2023-06-29T01:10:44.464Z,59.40
2023-06-29T01:13:16.024Z,55.37
2023-06-29T01:15:47.670Z,55.03
2023-06-29T01:18:21.168Z,56.53
2023-06-29T01:20:51.952Z,60.13
2023-06-29T01:23:26.912Z,56.13
2023-06-29T01:25:59.113Z,58.87
2023-06-29T01:28:33.306Z,66.77
2023-06-29T01:31:04.009Z,53.47
2023-06-29T01:33:34.935Z,58.77
2023-06-29T01:36:11.922Z,54.77
2023-06-29T01:38:46.307Z,54.43
2023-06-29T01:41:18.751Z,54.00
2023-06-29T01:43:49.295Z,55.43
2023-06-29T01:46:21.012Z,53.10
2023-06-29T01:48:52.331Z,48.47
2023-06-29T01:51:22.495Z,51.87
2023-06-29T01:53:52.533Z,49.30
2023-06-29T01:56:23.679Z,48.40
2023-06-29T01:58:53.575Z,52.03
2023-06-29T02:01:23.498Z,52.60
2023-06-29T02:03:53.588Z,63.33
2023-06-29T02:06:23.506Z,52.27
2023-06-29T02:08:53.365Z,54.40
2023-06-29T02:11:24.509Z,56.23
2023-06-29T02:13:54.357Z,50.10
2023-06-29T02:16:24.349Z,49.47
2023-06-29T02:18:54.203Z,56.23
2023-06-29T02:21:23.965Z,49.83
2023-06-29T02:23:53.797Z,50.70
2023-06-29T02:26:26.521Z,47.97
2023-06-29T02:28:56.307Z,52.70
2023-06-29T02:31:26.832Z,67.53
2023-06-29T02:33:58.089Z,63.70
2023-06-29T02:36:29.143Z,53.40
2023-06-29T02:38:59.047Z,52.60
2023-06-29T02:41:30.217Z,50.10
2023-06-29T02:44:00.201Z,49.37
2023-06-29T02:46:30.130Z,50.80
2023-06-29T02:49:00.366Z,52.50
2023-06-29T02:51:30.215Z,51.43
2023-06-29T02:54:06.265Z,56.67
2023-06-29T02:56:37.508Z,57.03
2023-06-29T02:59:07.534Z,65.60
2023-06-29T03:01:37.754Z,52.07
2023-06-29T03:04:07.584Z,52.67
2023-06-29T03:06:37.676Z,51.47
2023-06-29T03:09:07.740Z,52.87
2023-06-29T03:11:39.643Z,50.20
2023-06-29T03:14:09.419Z,50.77
2023-06-29T03:16:39.313Z,51.87
2023-06-29T03:19:09.128Z,51.27
2023-06-29T03:21:38.897Z,57.57
2023-06-29T03:24:08.834Z,59.60
2023-06-29T03:26:39.969Z,50.43
2023-06-29T03:29:09.770Z,53.90
2023-06-29T03:31:39.502Z,50.27
2023-06-29T03:34:09.902Z,49.40
2023-06-29T03:36:39.694Z,48.00
2023-06-29T03:39:09.535Z,48.47
2023-06-29T03:41:40.634Z,49.27
2023-06-29T03:44:10.398Z,46.17
2023-06-29T03:46:40.216Z,70.03
2023-06-29T03:49:10.055Z,49.80
2023-06-29T03:51:39.782Z,51.77
2023-06-29T03:54:09.634Z,48.30
2023-06-29T03:56:40.832Z,48.03
2023-06-29T03:59:10.632Z,49.70
2023-06-29T04:01:40.441Z,49.17
2023-06-29T04:04:10.343Z,52.30
2023-06-29T04:06:40.160Z,65.70
2023-06-29T04:09:12.018Z,49.00
2023-06-29T04:11:43.132Z,47.97
2023-06-29T04:14:12.907Z,49.67
2023-06-29T04:16:42.855Z,50.80
2023-06-29T04:19:13.413Z,49.23
2023-06-29T04:21:44.637Z,52.07
2023-06-29T04:24:14.496Z,53.23
2023-06-29T04:26:45.631Z,53.90
2023-06-29T04:29:15.464Z,64.33
2023-06-29T04:31:45.288Z,57.63
2023-06-29T04:34:18.507Z,68.83
2023-06-29T04:36:48.823Z,53.23
2023-06-29T04:39:18.584Z,67.10
2023-06-29T04:41:49.806Z,62.70
2023-06-29T04:44:22.787Z,62.53
2023-06-29T04:46:52.605Z,59.77
2023-06-29T04:49:22.469Z,62.83
2023-06-29T04:51:52.250Z,57.97
2023-06-29T04:54:22.348Z,59.53
2023-06-29T04:56:53.444Z,59.43
2023-06-29T04:59:24.843Z,56.53
2023-06-29T05:01:54.690Z,56.93
2023-06-29T05:04:24.647Z,57.43
2023-06-29T05:06:54.486Z,55.57
2023-06-29T05:09:24.294Z,52.60
2023-06-29T05:11:55.405Z,51.90
2023-06-29T05:14:25.259Z,51.43
2023-06-29T05:16:55.114Z,53.90
2023-06-29T05:19:25.108Z,49.03
2023-06-29T05:21:55.270Z,48.60
2023-06-29T05:24:25.104Z,49.83
2023-06-29T05:26:56.279Z,50.63
2023-06-29T05:29:26.460Z,47.50
2023-06-29T05:31:56.343Z,56.83
2023-06-29T05:34:26.219Z,50.83
2023-06-29T05:36:57.131Z,54.70
2023-06-29T05:39:28.501Z,48.83
2023-06-29T05:41:59.768Z,57.70
2023-06-29T05:44:29.571Z,47.40
2023-06-29T05:46:59.349Z,48.17
2023-06-29T05:49:29.077Z,47.37
2023-06-29T05:51:58.868Z,50.60
2023-06-29T05:54:28.683Z,48.13
2023-06-29T05:56:59.837Z,45.60
2023-06-29T05:59:30.990Z,42.57
2023-06-29T06:02:00.785Z,46.63
2023-06-29T06:04:30.726Z,44.67
2023-06-29T06:07:00.663Z,44.27
2023-06-29T06:09:30.474Z,42.70
2023-06-29T06:12:02.046Z,42.47
2023-06-29T06:14:31.853Z,48.50
2023-06-29T06:17:01.730Z,44.47
2023-06-29T06:19:31.502Z,47.70
2023-06-29T06:22:01.250Z,45.50
2023-06-29T06:24:31.058Z,45.97
2023-06-29T06:27:02.553Z,45.60
2023-06-29T06:29:32.310Z,43.40
2023-06-29T06:32:02.138Z,42.30
2023-06-29T06:34:33.417Z,42.53
2023-06-29T06:37:03.337Z,45.70
2023-06-29T06:39:34.567Z,43.70
2023-06-29T06:42:06.202Z,41.60
2023-06-29T06:44:38.188Z,43.10
2023-06-29T06:47:08.195Z,46.27
2023-06-29T06:49:38.543Z,44.27
2023-06-29T06:52:08.500Z,41.00
2023-06-29T06:54:38.298Z,42.73
2023-06-29T06:57:09.495Z,45.23
2023-06-29T06:59:39.298Z,42.73
2023-06-29T07:02:09.678Z,40.87
2023-06-29T07:04:39.816Z,45.63
2023-06-29T07:07:09.911Z,44.73
2023-06-29T07:09:40.091Z,44.03
2023-06-29T07:12:11.925Z,47.53
2023-06-29T07:14:42.057Z,44.30
2023-06-29T07:17:11.968Z,47.50
2023-06-29T07:24:47.376Z,43.10
2023-06-29T07:27:19.698Z,47.00
2023-06-29T07:29:49.506Z,43.80
2023-06-29T07:32:19.763Z,42.30
2023-06-29T07:34:51.557Z,44.73
2023-06-29T07:37:23.015Z,44.03
2023-06-29T07:39:52.808Z,46.00
2023-06-29T07:42:38.232Z,43.97
2023-06-29T07:45:09.875Z,39.67
2023-06-29T07:47:40.021Z,42.60
2023-06-29T07:50:10.711Z,43.63
2023-06-29T07:52:40.932Z,45.20
2023-06-29T07:55:10.833Z,44.63
2023-06-29T08:00:17.208Z,40.20
2023-06-29T08:02:50.659Z,41.27
2023-06-29T08:07:53.446Z,41.07
2023-06-29T08:10:23.429Z,39.60
2023-06-29T08:12:54.695Z,40.40
2023-06-29T08:15:24.445Z,40.70
2023-06-29T08:17:54.274Z,40.40
2023-06-29T08:20:24.880Z,42.07
2023-06-29T08:22:55.707Z,41.93
2023-06-29T08:25:25.589Z,42.17
2023-06-29T08:27:56.771Z,67.57
2023-06-29T08:30:26.823Z,41.67
2023-06-29T08:32:56.581Z,42.47
2023-06-29T08:35:26.366Z,47.67
2023-06-29T08:37:56.236Z,59.27
2023-06-29T08:40:27.912Z,39.77
2023-06-29T08:42:58.982Z,43.20
2023-06-29T08:45:28.714Z,39.60
2023-06-29T08:47:59.492Z,40.77
2023-06-29T08:50:30.052Z,40.00
2023-06-29T08:53:00.082Z,45.60
2023-06-29T08:55:30.856Z,41.60
2023-06-29T08:58:02.961Z,41.10
2023-06-29T09:00:33.083Z,61.50
2023-06-29T09:03:03.837Z,44.20
2023-06-29T09:05:36.062Z,39.40
2023-06-29T09:08:06.508Z,41.83
2023-06-29T09:10:38.181Z,52.93
2023-06-29T09:13:10.536Z,43.27
2023-06-29T09:15:42.144Z,42.10
2023-06-29T09:18:12.763Z,47.50
2023-06-29T09:20:43.067Z,40.47
2023-06-29T09:23:15.122Z,43.90
2023-06-29T09:25:45.297Z,43.00
2023-06-29T09:28:16.394Z,44.63
2023-06-29T09:30:46.688Z,39.60
2023-06-29T09:33:16.768Z,42.47
2023-06-29T09:35:48.042Z,39.57
2023-06-29T09:38:18.465Z,39.50
2023-06-29T09:40:49.750Z,46.60
2023-06-29T09:43:22.850Z,44.83
2023-06-29T09:45:54.140Z,41.73
2023-06-29T09:50:57.367Z,40.37
2023-06-29T09:53:31.558Z,40.73
2023-06-29T09:56:03.235Z,41.50
2023-06-29T09:58:35.290Z,39.00
2023-06-29T10:01:05.236Z,45.97
2023-06-29T10:03:35.636Z,42.17
2023-06-29T10:06:13.203Z,42.80
2023-06-29T10:08:44.645Z,43.17
2023-06-29T10:11:15.601Z,39.20
2023-06-29T10:13:51.972Z,48.03
2023-06-29T10:16:24.612Z,41.10
2023-06-29T10:19:02.300Z,40.83
2023-06-29T10:21:32.212Z,40.90
2023-06-29T10:24:03.898Z,44.03
2023-06-29T10:26:34.966Z,43.63
2023-06-29T10:29:08.365Z,44.53
2023-06-29T10:31:38.947Z,42.47
2023-06-29T10:34:09.253Z,41.27
2023-06-29T10:36:47.028Z,42.23
2023-06-29T10:39:41.039Z,44.33
2023-06-29T10:42:13.727Z,46.67
2023-06-29T10:44:48.714Z,48.60
2023-06-29T10:47:28.044Z,49.40
2023-06-29T10:50:18.772Z,47.70
2023-06-29T10:52:50.142Z,41.60
2023-06-29T10:55:21.932Z,43.80
2023-06-29T10:57:55.917Z,42.30
2023-06-29T11:00:28.745Z,42.20
2023-06-29T11:03:01.736Z,46.20
2023-06-29T11:05:35.154Z,43.20
2023-06-29T11:08:06.830Z,45.87
2023-06-29T11:10:37.676Z,45.87
2023-06-29T11:13:10.579Z,42.60
2023-06-29T11:15:42.419Z,43.77
2023-06-29T11:18:12.505Z,44.53
2023-06-29T11:20:42.733Z,40.60
2023-06-29T11:23:12.781Z,41.30
2023-06-29T11:25:42.601Z,42.43
2023-06-29T11:28:16.174Z,45.43
2023-06-29T11:30:50.812Z,41.80
2023-06-29T11:33:33.767Z,42.47
2023-06-29T11:36:04.974Z,43.60
2023-06-29T11:38:35.400Z,41.20
2023-06-29T11:41:06.231Z,43.57
2023-06-29T11:43:36.702Z,41.60
2023-06-29T11:46:07.979Z,49.53
2023-06-29T11:48:38.197Z,50.33
2023-06-29T11:51:08.161Z,48.03
2023-06-29T11:53:38.326Z,46.67
2023-06-29T11:56:08.116Z,45.33
2023-06-29T11:58:38.226Z,42.67
2023-06-29T12:01:16.684Z,44.50
2023-06-29T12:03:48.386Z,40.67
2023-06-29T12:06:18.284Z,41.03
2023-06-29T12:08:52.583Z,40.87
2023-06-29T12:11:23.039Z,42.57
2023-06-29T12:13:53.050Z,42.73
2023-06-29T12:18:57.274Z,43.00
2023-06-29T12:21:27.512Z,42.03
2023-06-29T12:24:04.463Z,42.30
2023-06-29T12:26:34.771Z,42.80
2023-06-29T12:29:05.090Z,48.63
2023-06-29T12:31:36.822Z,41.87
2023-06-29T12:34:06.750Z,43.77
2023-06-29T12:36:37.568Z,44.40
2023-06-29T12:39:07.480Z,40.60
2023-06-29T12:41:37.493Z,46.03
2023-06-29T12:44:07.431Z,45.30
2023-06-29T12:46:38.967Z,43.30
2023-06-29T12:49:08.788Z,46.53
2023-06-29T12:51:38.596Z,45.77
2023-06-29T12:54:10.621Z,54.00
2023-06-29T12:56:40.672Z,47.07
2023-06-29T12:59:10.468Z,45.80
2023-06-29T13:01:41.769Z,49.83
2023-06-29T13:04:11.696Z,46.43
2023-06-29T13:06:42.537Z,48.83
2023-06-29T13:09:12.393Z,44.50
2023-06-29T13:11:45.477Z,45.23
2023-06-29T13:14:15.260Z,44.93
2023-06-29T13:16:46.773Z,47.80
2023-06-29T13:19:16.657Z,45.03
2023-06-29T13:21:46.477Z,43.87
2023-06-29T13:24:16.534Z,46.07
2023-06-29T13:26:46.791Z,48.63
2023-06-29T13:29:16.744Z,44.53
2023-06-29T13:31:48.282Z,44.50
2023-06-29T13:34:18.208Z,45.70
2023-06-29T13:36:48.073Z,44.60
2023-06-29T13:39:18.426Z,45.83
2023-06-29T13:41:50.399Z,48.60
2023-06-29T13:44:20.246Z,46.17
2023-06-29T13:46:51.609Z,47.10
2023-06-29T13:49:23.044Z,46.87
2023-06-29T13:51:53.219Z,46.57
2023-06-29T13:54:22.975Z,44.80
2023-06-29T13:56:53.816Z,43.90
2023-06-29T13:59:23.647Z,45.07
2023-06-29T14:01:55.110Z,48.87
2023-06-29T14:04:25.622Z,64.70
2023-06-29T14:06:55.612Z,61.70
2023-06-29T14:09:26.928Z,43.10
2023-06-29T14:11:56.714Z,47.80
2023-06-29T14:14:26.460Z,44.30
2023-06-29T14:16:57.609Z,45.07
2023-06-29T14:19:27.417Z,49.73
2023-06-29T14:21:57.162Z,44.40
2023-06-29T14:24:26.950Z,53.30
2023-06-29T14:26:56.768Z,46.20
2023-06-29T14:29:26.734Z,46.40
2023-06-29T14:31:58.007Z,46.03
2023-06-29T14:34:27.942Z,51.23
2023-06-29T14:36:57.734Z,44.17
2023-06-29T14:39:28.175Z,44.40
2023-06-29T14:41:59.549Z,46.03
2023-06-29T14:44:29.702Z,42.70
2023-06-29T14:47:01.860Z,40.73
2023-06-29T14:49:31.642Z,43.30
2023-06-29T14:52:01.437Z,48.77
2023-06-29T14:54:31.220Z,42.73
2023-06-29T14:57:01.004Z,41.67
2023-06-29T14:59:30.835Z,44.57
2023-06-29T15:02:02.035Z,42.00
2023-06-29T15:04:32.182Z,42.30
2023-06-29T15:07:02.030Z,42.30
2023-06-29T15:09:32.047Z,42.33
2023-06-29T15:12:03.258Z,40.73
2023-06-29T15:14:33.670Z,46.23
2023-06-29T15:17:05.695Z,40.77
2023-06-29T15:19:35.921Z,42.80
2023-06-29T15:22:06.821Z,42.93
2023-06-29T15:24:36.621Z,42.53
2023-06-29T15:27:07.042Z,43.17
2023-06-29T15:29:37.224Z,47.93
2023-06-29T15:32:09.083Z,39.40
2023-06-29T15:34:39.372Z,41.20
2023-06-29T15:37:10.356Z,41.10
2023-06-29T15:39:40.565Z,50.40
2023-06-29T15:42:10.448Z,41.67
2023-06-29T15:44:40.174Z,47.93
2023-06-29T15:47:11.293Z,41.70
2023-06-29T15:49:41.062Z,42.57
2023-06-29T15:52:10.868Z,39.93
2023-06-29T15:54:40.961Z,40.90
2023-06-29T15:57:10.992Z,40.80
2023-06-29T15:59:40.895Z,40.93
2023-06-29T16:02:12.057Z,47.33
2023-06-29T16:04:41.924Z,41.37
2023-06-29T16:07:12.015Z,42.03
2023-06-29T16:09:41.785Z,40.13
2023-06-29T16:12:12.008Z,44.83
2023-06-29T16:14:41.724Z,42.07
2023-06-29T16:17:13.215Z,41.20
2023-06-29T16:19:43.091Z,48.30
2023-06-29T16:22:12.969Z,40.37
2023-06-29T16:24:42.827Z,40.47
2023-06-29T16:27:12.718Z,43.63
2023-06-29T16:29:42.484Z,40.47
2023-06-29T16:32:14.008Z,42.17
2023-06-29T16:34:44.279Z,42.00
2023-06-29T16:37:14.120Z,39.73
2023-06-29T16:39:44.080Z,40.53
2023-06-29T16:42:14.220Z,41.80
2023-06-29T16:44:44.059Z,40.93
2023-06-29T16:47:15.212Z,45.23
2023-06-29T16:49:45.009Z,48.83
2023-06-29T16:52:15.868Z,40.20
2023-06-29T16:54:45.659Z,41.43
2023-06-29T16:57:15.787Z,42.60
2023-06-29T16:59:45.624Z,41.17
2023-06-29T17:02:16.847Z,47.53
2023-06-29T17:04:46.793Z,44.37
2023-06-29T17:07:16.593Z,39.07
2023-06-29T17:09:46.524Z,41.50
2023-06-29T17:12:16.348Z,44.03
2023-06-29T17:14:46.106Z,48.50
2023-06-29T17:17:17.300Z,43.33
2023-06-29T17:19:49.968Z,45.20
2023-06-29T17:22:19.758Z,50.07
2023-06-29T17:24:49.546Z,44.83
2023-06-29T17:27:19.320Z,42.20
2023-06-29T17:29:50.237Z,41.20
2023-06-29T17:32:21.402Z,49.50
2023-06-29T17:34:51.291Z,43.50
2023-06-29T17:37:21.209Z,43.97
2023-06-29T17:39:51.125Z,41.50
2023-06-29T17:42:22.257Z,49.90
2023-06-29T17:44:52.087Z,42.67
2023-06-29T17:47:23.474Z,47.83
2023-06-29T17:49:53.413Z,45.40
2023-06-29T17:52:23.152Z,44.83
2023-06-29T17:54:52.966Z,43.57
2023-06-29T17:57:22.784Z,42.87
2023-06-29T17:59:52.563Z,43.50
2023-06-29T18:02:23.822Z,42.23
2023-06-29T18:04:53.840Z,47.27
2023-06-29T18:07:23.844Z,47.03
2023-06-29T18:09:53.649Z,44.10
2023-06-29T18:12:23.444Z,43.27
2023-06-29T18:14:53.482Z,50.87
2023-06-29T18:17:24.630Z,45.60
2023-06-29T18:19:54.421Z,45.37
2023-06-29T18:22:24.230Z,45.20
2023-06-29T18:24:54.107Z,46.70
2023-06-29T18:27:24.170Z,54.43
2023-06-29T18:29:54.247Z,65.20
2023-06-29T18:32:25.407Z,46.23
2023-06-29T18:34:55.197Z,43.97
2023-06-29T18:37:25.061Z,51.17
2023-06-29T18:39:54.887Z,52.80
2023-06-29T18:42:25.060Z,53.90
2023-06-29T18:44:54.930Z,51.10
2023-06-29T18:47:26.116Z,46.87
2023-06-29T18:49:57.002Z,47.07
2023-06-29T18:52:28.422Z,50.50
2023-06-29T18:54:58.511Z,49.07
2023-06-29T18:57:28.781Z,50.90
2023-06-29T18:59:58.564Z,53.47
2023-06-29T19:02:29.713Z,54.63
2023-06-29T19:05:01.322Z,48.80
2023-06-29T19:07:31.158Z,55.87
2023-06-29T19:10:01.094Z,65.13
2023-06-29T19:12:30.861Z,62.60
2023-06-29T19:15:00.699Z,49.53
2023-06-29T19:17:32.122Z,54.87
2023-06-29T19:20:02.029Z,54.73
2023-06-29T19:22:31.868Z,49.87
2023-06-29T19:25:01.639Z,56.00
2023-06-29T19:27:31.474Z,52.07
2023-06-29T19:30:01.280Z,53.60
2023-06-29T19:32:32.529Z,56.87
2023-06-29T19:35:02.509Z,61.23
2023-06-29T19:37:32.313Z,63.10
2023-06-29T19:40:02.107Z,54.50
2023-06-29T19:42:32.000Z,59.10
2023-06-29T19:45:01.867Z,62.37
2023-06-29T19:47:33.067Z,59.43
2023-06-29T19:50:03.043Z,53.13
2023-06-29T19:52:33.350Z,50.90
2023-06-29T19:55:03.248Z,57.07
2023-06-29T19:57:33.194Z,55.77
2023-06-29T20:00:03.185Z,58.17
2023-06-29T20:02:54.853Z,57.50
2023-06-29T20:05:24.726Z,62.57
2023-06-29T20:07:55.538Z,77.07
2023-06-29T20:10:25.359Z,63.50
2023-06-29T20:12:55.418Z,64.87
2023-06-29T20:15:25.928Z,59.83
2023-06-29T20:17:57.425Z,58.97
2023-06-29T20:20:27.387Z,59.17
2023-06-29T20:22:57.287Z,63.43
2023-06-29T20:25:27.859Z,55.70
2023-06-29T20:27:57.764Z,59.37
2023-06-29T20:30:29.516Z,59.07
2023-06-29T20:33:01.264Z,53.80
2023-06-29T20:35:34.705Z,53.70
2023-06-29T20:38:07.433Z,54.93
2023-06-29T20:40:37.835Z,65.73
2023-06-29T20:43:08.160Z,62.87
2023-06-29T20:45:38.910Z,67.17
2023-06-29T20:48:18.746Z,60.43
2023-06-29T20:50:50.480Z,63.77
2023-06-29T20:53:22.292Z,62.60
2023-06-29T20:55:52.838Z,62.63
2023-06-29T20:58:23.242Z,61.30
2023-06-29T21:00:57.893Z,61.50
2023-06-29T21:03:34.618Z,63.23
2023-06-29T21:06:05.036Z,72.90
2023-06-29T21:08:38.060Z,70.50
2023-06-29T21:11:09.000Z,69.07
2023-06-29T21:13:39.888Z,66.07
2023-06-29T21:16:10.504Z,63.10
2023-06-29T21:18:44.777Z,70.73
2023-06-29T21:21:18.932Z,66.63
2023-06-29T21:23:55.030Z,63.00
2023-06-29T21:26:27.641Z,58.20
2023-06-29T21:29:17.485Z,62.07
2023-06-29T21:31:57.065Z,58.67
2023-06-29T21:34:38.942Z,59.17
2023-06-29T21:37:11.234Z,63.70
2023-06-29T21:39:43.893Z,53.67
2023-06-29T21:42:20.941Z,54.90
2023-06-29T21:44:53.598Z,59.10
2023-06-29T21:47:27.782Z,81.63
2023-06-29T21:50:01.395Z,61.43
2023-06-29T21:52:34.863Z,63.97
2023-06-29T21:55:06.932Z,64.90
2023-06-29T21:57:38.961Z,59.80
2023-06-29T22:00:13.548Z,55.60
2023-06-29T22:02:53.602Z,60.23
2023-06-29T22:05:26.151Z,50.57
2023-06-29T22:07:56.777Z,55.53
2023-06-29T22:10:30.712Z,53.83
2023-06-29T22:13:06.845Z,56.30
2023-06-29T22:15:44.292Z,56.77
2023-06-29T22:18:15.228Z,57.90
2023-06-29T22:20:47.826Z,62.27
2023-06-29T22:23:20.968Z,52.73
2023-06-29T22:25:57.039Z,51.40
2023-06-29T22:28:27.288Z,59.33
2023-06-29T22:31:00.100Z,56.90
2023-06-29T22:33:30.365Z,66.50
2023-06-29T22:36:01.977Z,57.00
2023-06-29T22:38:32.207Z,53.10
2023-06-29T22:41:02.465Z,63.30
2023-06-29T22:43:37.950Z,62.60
2023-06-29T22:46:10.948Z,65.37
2023-06-29T22:48:46.525Z,67.20
2023-06-29T22:51:25.408Z,64.90
2023-06-29T22:54:05.519Z,70.50
2023-06-29T22:56:43.483Z,67.17
2023-06-29T22:59:17.108Z,69.07
2023-06-29T23:01:50.157Z,64.20
2023-06-29T23:04:24.821Z,60.00
2023-06-29T23:07:04.173Z,64.20
2023-06-29T23:09:40.849Z,57.90
2023-06-29T23:12:11.551Z,70.00
2023-06-29T23:14:47.634Z,63.90
2023-06-29T23:17:26.193Z,69.33
2023-06-29T23:19:58.468Z,63.30
2023-06-29T23:22:30.077Z,68.17
2023-06-29T23:25:02.083Z,69.37
2023-06-29T23:27:35.083Z,69.10
2023-06-29T23:30:07.255Z,74.50
2023-06-29T23:32:37.450Z,70.00
2023-06-29T23:35:09.945Z,80.33
2023-06-29T23:37:41.456Z,91.17
2023-06-29T23:40:12.617Z,118.17
2023-06-29T23:42:43.986Z,128.47
2023-06-29T23:45:14.028Z,501.30
2023-06-29T23:47:44.522Z,945.57
2023-06-29T23:50:15.113Z,319.57
2023-06-29T23:52:46.465Z,828.43
2023-06-29T23:55:17.186Z,1008.53
2023-06-29T23:57:47.336Z,901.70
